createdAt,value
2023-05-01T00:03:28.425Z,2.45
2023-05-01T00:06:04.263Z,2.40
2023-05-01T00:08:32.461Z,2.40
2023-05-01T00:11:09.700Z,3.25
2023-05-01T00:13:36.694Z,2.70
2023-05-01T00:16:08.926Z,2.60
2023-05-01T00:18:36.305Z,2.75
2023-05-01T00:21:03.409Z,2.80
2023-05-01T00:23:30.450Z,3.05
2023-05-01T00:25:57.444Z,2.67
2023-05-01T00:28:24.376Z,2.42
2023-05-01T00:30:51.347Z,2.42
2023-05-01T00:33:18.594Z,2.97
2023-05-01T00:35:46.079Z,2.70
2023-05-01T00:38:13.322Z,2.38
2023-05-01T00:40:45.509Z,2.53
2023-05-01T00:43:13.583Z,2.85
2023-05-01T00:45:43.329Z,2.53
2023-05-01T00:48:11.004Z,2.63
2023-05-01T00:50:38.826Z,2.92
2023-05-01T00:53:06.457Z,2.70
2023-05-01T00:55:33.903Z,3.28
2023-05-01T00:58:02.222Z,2.70
2023-05-01T01:00:29.691Z,2.85
2023-05-01T01:02:57.203Z,3.47
2023-05-01T01:05:28.365Z,3.15
2023-05-01T01:08:19.556Z,3.03
2023-05-01T01:10:54.561Z,3.38
2023-05-01T01:13:29.110Z,3.88
2023-05-01T01:16:27.958Z,3.67
2023-05-01T01:19:24.860Z,3.30
2023-05-01T01:21:58.809Z,3.15
2023-05-01T01:24:46.012Z,3.55
2023-05-01T01:27:31.236Z,3.70
2023-05-01T01:30:30.051Z,3.83
2023-05-01T01:33:09.402Z,3.05
2023-05-01T01:35:39.917Z,4.05
2023-05-01T01:38:15.230Z,3.38
2023-05-01T01:40:53.741Z,3.72
2023-05-01T01:43:24.215Z,3.65
2023-05-01T01:45:57.946Z,3.30
2023-05-01T01:48:33.126Z,3.65
2023-05-01T01:51:04.950Z,3.25
2023-05-01T01:53:35.115Z,3.65
2023-05-01T01:56:06.205Z,3.97
2023-05-01T01:58:36.685Z,3.60
2023-05-01T02:01:06.336Z,4.50
2023-05-01T02:03:34.716Z,4.22
2023-05-01T02:06:05.314Z,4.13
2023-05-01T02:08:34.343Z,3.90
2023-05-01T02:11:02.447Z,4.00
2023-05-01T02:13:31.595Z,3.67
2023-05-01T02:16:00.805Z,4.03
2023-05-01T02:18:29.415Z,3.97
2023-05-01T02:20:59.719Z,3.85
2023-05-01T02:23:28.622Z,3.90
2023-05-01T02:25:57.835Z,3.92
2023-05-01T02:28:26.024Z,3.75
2023-05-01T02:30:53.152Z,3.58
2023-05-01T02:33:20.767Z,4.00
2023-05-01T02:35:47.947Z,3.42
2023-05-01T02:38:17.468Z,4.47
2023-05-01T02:40:50.170Z,4.03
2023-05-01T02:43:21.025Z,3.67
2023-05-01T02:45:51.533Z,4.05
2023-05-01T02:48:23.630Z,4.05
2023-05-01T02:50:52.481Z,3.30
2023-05-01T02:53:20.399Z,3.75
2023-05-01T02:55:54.672Z,3.40
2023-05-01T02:58:21.660Z,3.47
2023-05-01T03:00:50.029Z,3.67
2023-05-01T03:03:18.075Z,3.28
2023-05-01T03:05:45.159Z,3.53
2023-05-01T03:08:12.773Z,3.55
2023-05-01T03:10:43.249Z,3.67
2023-05-01T03:13:11.568Z,3.05
2023-05-01T03:15:39.048Z,3.22
2023-05-01T03:18:07.011Z,3.92
2023-05-01T03:20:34.223Z,3.45
2023-05-01T03:23:02.333Z,3.45
2023-05-01T03:25:30.635Z,3.03
2023-05-01T03:27:57.548Z,3.03
2023-05-01T03:30:25.008Z,3.38
2023-05-01T03:32:55.142Z,3.25
2023-05-01T03:35:28.330Z,3.50
2023-05-01T03:37:56.508Z,3.10
2023-05-01T03:40:56.084Z,3.40
2023-05-01T03:43:41.603Z,3.25
2023-05-01T03:46:17.430Z,3.53
2023-05-01T03:48:44.467Z,3.75
2023-05-01T03:51:11.515Z,3.63
2023-05-01T03:53:39.110Z,3.20
2023-05-01T03:56:07.472Z,3.65
2023-05-01T03:58:34.460Z,3.30
2023-05-01T04:01:02.935Z,4.10
2023-05-01T04:03:30.496Z,3.20
2023-05-01T04:05:57.683Z,4.15
2023-05-01T04:08:24.718Z,4.05
2023-05-01T04:10:51.778Z,3.90
2023-05-01T04:13:18.980Z,3.90
2023-05-01T04:15:47.162Z,3.70
2023-05-01T04:18:14.369Z,4.45
2023-05-01T04:20:42.242Z,3.85
2023-05-01T04:23:09.668Z,4.10
2023-05-01T04:25:37.453Z,4.20
2023-05-01T04:28:14.141Z,3.88
2023-05-01T04:30:41.187Z,3.92
2023-05-01T04:33:11.751Z,4.28
2023-05-01T04:35:40.771Z,3.47
2023-05-01T04:38:10.877Z,3.80
2023-05-01T04:40:39.608Z,5.07
2023-05-01T04:43:06.864Z,4.15
2023-05-01T04:45:36.150Z,4.47
2023-05-01T04:48:03.663Z,4.40
2023-05-01T04:50:31.152Z,3.88
2023-05-01T04:52:59.266Z,4.15
2023-05-01T04:55:26.255Z,4.35
2023-05-01T04:58:06.697Z,4.10
2023-05-01T05:00:35.685Z,4.68
2023-05-01T05:03:03.451Z,4.40
2023-05-01T05:05:31.290Z,4.72
2023-05-01T05:07:58.534Z,4.60
2023-05-01T05:10:32.367Z,4.78
2023-05-01T05:13:21.146Z,4.43
2023-05-01T05:15:55.681Z,5.13
2023-05-01T05:18:24.165Z,4.93
2023-05-01T05:20:51.739Z,5.05
2023-05-01T05:23:19.373Z,4.85
2023-05-01T05:25:46.297Z,4.82
2023-05-01T05:28:13.474Z,4.78
2023-05-01T05:30:41.646Z,5.00
2023-05-01T05:33:10.424Z,4.13
2023-05-01T05:35:37.409Z,5.25
2023-05-01T05:38:04.567Z,4.93
2023-05-01T05:40:35.240Z,4.65
2023-05-01T05:43:03.583Z,4.55
2023-05-01T05:45:34.378Z,4.70
2023-05-01T05:48:02.067Z,5.38
2023-05-01T05:50:32.147Z,4.80
2023-05-01T05:52:59.408Z,4.82
2023-05-01T05:55:28.110Z,4.68
2023-05-01T05:58:06.821Z,5.38
2023-05-01T06:00:34.667Z,5.22
2023-05-01T06:03:05.243Z,5.45
2023-05-01T06:05:34.328Z,4.88
2023-05-01T06:08:01.472Z,5.15
2023-05-01T06:10:28.413Z,5.20
2023-05-01T06:12:59.306Z,5.60
2023-05-01T06:15:41.600Z,5.15
2023-05-01T06:18:09.141Z,5.32
2023-05-01T06:20:37.005Z,5.80
2023-05-01T06:23:05.733Z,5.32
2023-05-01T06:25:41.424Z,5.75
2023-05-01T06:28:08.351Z,5.38
2023-05-01T06:30:35.892Z,5.22
2023-05-01T06:33:03.127Z,4.72
2023-05-01T06:35:30.578Z,5.35
2023-05-01T06:37:57.525Z,4.90
2023-05-01T06:40:24.546Z,5.70
2023-05-01T06:42:51.634Z,5.10
2023-05-01T06:45:18.925Z,4.80
2023-05-01T06:47:45.870Z,5.55
2023-05-01T06:50:12.905Z,5.47
2023-05-01T06:52:40.695Z,4.82
2023-05-01T06:55:08.288Z,5.68
2023-05-01T06:57:35.874Z,5.57
2023-05-01T07:00:03.488Z,5.10
2023-05-01T07:02:30.497Z,5.13
2023-05-01T07:04:57.745Z,5.30
2023-05-01T07:07:24.654Z,5.03
2023-05-01T17:40:59.349Z,4.80
2023-05-01T17:43:26.855Z,4.63
2023-05-01T17:45:53.825Z,4.80
2023-05-01T17:48:20.758Z,4.50
2023-05-01T17:50:47.726Z,4.57
2023-05-01T17:53:14.639Z,4.45
2023-05-01T17:55:41.720Z,5.10
2023-05-01T17:58:08.655Z,5.40
2023-05-01T18:00:35.837Z,4.43
2023-05-01T18:03:02.818Z,4.60
2023-05-01T18:05:29.959Z,4.60
2023-05-01T18:07:56.898Z,4.35
2023-05-01T18:10:23.826Z,4.95
2023-05-01T18:12:50.873Z,4.32
2023-05-01T18:15:22.574Z,4.43
2023-05-01T18:17:50.551Z,4.72
2023-05-01T18:20:17.829Z,5.22
2023-05-01T18:22:45.322Z,4.35
2023-05-01T18:25:13.513Z,4.90
2023-05-01T18:27:41.855Z,4.47
2023-05-01T18:30:09.645Z,4.63
2023-05-01T18:32:47.663Z,4.88
2023-05-01T18:35:16.748Z,5.43
2023-05-01T18:37:44.206Z,5.20
2023-05-01T18:40:11.686Z,5.28
2023-05-01T18:42:41.936Z,5.68
2023-05-01T18:45:12.391Z,5.75
2023-05-01T18:47:39.458Z,5.88
2023-05-01T18:50:07.312Z,5.88
2023-05-01T18:52:37.030Z,5.05
2023-05-01T18:55:04.458Z,4.95
2023-05-01T18:57:32.821Z,5.40
2023-05-01T19:00:01.327Z,4.85
2023-05-01T19:02:28.738Z,4.55
2023-05-01T19:04:57.952Z,4.50
2023-05-01T19:07:26.492Z,4.60
2023-05-01T19:09:53.968Z,4.97
2023-05-01T19:12:20.948Z,4.70
2023-05-01T19:14:47.884Z,4.43
2023-05-01T19:17:14.837Z,4.40
2023-05-01T19:19:41.841Z,4.78
2023-05-01T19:22:08.892Z,5.07
2023-05-01T19:24:36.101Z,4.35
2023-05-01T19:27:03.369Z,4.60
2023-05-01T19:29:33.846Z,4.28
2023-05-01T19:32:00.938Z,4.15
2023-05-01T19:34:28.591Z,4.88
2023-05-01T19:37:00.218Z,3.72
2023-05-01T19:39:27.295Z,4.15
2023-05-01T19:41:54.236Z,3.63
2023-05-01T19:44:22.896Z,4.45
2023-05-01T19:46:49.848Z,3.70
2023-05-01T19:49:16.889Z,4.45
2023-05-01T19:51:45.662Z,4.07
2023-05-01T19:54:12.617Z,4.53
2023-05-01T19:56:39.636Z,4.15
2023-05-01T19:59:07.136Z,3.80
2023-05-01T20:01:34.596Z,4.05
2023-05-01T20:04:01.591Z,3.78
2023-05-01T20:06:28.539Z,4.07
2023-05-01T20:08:55.486Z,3.70
2023-05-01T20:11:22.497Z,3.97
2023-05-01T20:13:49.412Z,4.28
2023-05-01T20:16:16.386Z,3.35
2023-05-01T20:18:43.348Z,4.00
2023-05-01T20:21:10.298Z,4.28
2023-05-01T20:23:37.528Z,4.10
2023-05-01T20:26:04.650Z,4.30
2023-05-01T20:28:31.639Z,3.97
2023-05-01T20:30:58.894Z,4.30
2023-05-01T20:33:25.920Z,4.28
2023-05-01T20:35:53.018Z,3.80
2023-05-01T20:38:21.627Z,4.70
2023-05-01T20:40:48.552Z,4.40
2023-05-01T20:43:15.578Z,5.07
2023-05-01T20:45:42.769Z,4.55
2023-05-01T20:48:11.030Z,5.05
2023-05-01T20:50:38.159Z,5.72
2023-05-01T20:53:05.176Z,5.55
2023-05-01T20:55:32.148Z,5.28
2023-05-01T20:57:59.092Z,5.20
2023-05-01T21:00:26.114Z,5.85
2023-05-01T21:02:53.195Z,5.47
2023-05-01T21:05:20.397Z,6.35
2023-05-01T21:07:47.994Z,5.82
2023-05-01T21:10:16.576Z,5.68
2023-05-01T21:12:43.676Z,5.38
2023-05-01T21:15:11.678Z,5.70
2023-05-01T21:17:40.752Z,5.78
2023-05-01T21:20:14.520Z,5.30
2023-05-01T21:25:09.187Z,6.07
2023-05-01T21:27:41.795Z,6.78
2023-05-01T21:30:13.023Z,6.35
2023-05-01T21:32:40.480Z,6.07
2023-05-01T21:35:10.084Z,6.10
2023-05-01T21:37:37.403Z,5.90
2023-05-01T21:40:06.501Z,5.85
2023-05-01T21:42:40.314Z,6.32
2023-05-01T21:47:41.621Z,6.70
2023-05-01T21:50:12.729Z,6.45
2023-05-01T21:52:40.950Z,6.38
2023-05-01T21:55:10.022Z,7.40
2023-05-01T21:57:38.763Z,6.55
2023-05-01T22:00:09.706Z,6.13
2023-05-01T22:02:43.709Z,6.38
2023-05-01T22:05:12.832Z,6.95
2023-05-01T22:07:40.925Z,6.70
2023-05-01T22:10:12.268Z,6.68
2023-05-01T22:12:40.330Z,6.68
2023-05-01T22:15:09.277Z,6.45
2023-05-01T22:17:37.196Z,6.28
2023-05-01T22:20:09.070Z,6.95
2023-05-01T22:22:36.980Z,7.13
2023-05-01T22:25:05.053Z,7.07
2023-05-01T22:27:32.254Z,6.63
2023-05-01T22:29:59.579Z,7.07
2023-05-01T22:32:28.284Z,7.47
2023-05-01T22:34:55.511Z,7.00
2023-05-01T22:37:22.650Z,6.88
2023-05-01T22:39:49.593Z,6.68
2023-05-01T22:42:16.610Z,5.68
2023-05-01T22:44:43.567Z,7.20
2023-05-01T22:47:10.696Z,7.10
2023-05-01T22:49:37.684Z,7.20
2023-05-01T22:52:04.803Z,6.97
2023-05-01T22:54:31.696Z,6.72
2023-05-01T22:56:58.638Z,6.38
2023-05-01T22:59:26.041Z,4.70
2023-05-01T23:01:53.061Z,4.00
2023-05-01T23:04:20.104Z,4.72
2023-05-01T23:06:47.105Z,4.05
2023-05-01T23:09:14.070Z,3.33
2023-05-01T23:11:41.598Z,2.88
2023-05-01T23:14:08.571Z,2.53
2023-05-01T23:16:41.416Z,2.72
2023-05-01T23:19:21.674Z,2.67
2023-05-01T23:21:50.041Z,2.28
2023-05-01T23:24:19.390Z,1.88
2023-05-01T23:26:46.388Z,2.05
2023-05-01T23:29:14.570Z,1.88
2023-05-01T23:31:46.508Z,2.00
2023-05-01T23:34:17.621Z,1.80
2023-05-01T23:36:47.702Z,2.17
2023-05-01T23:39:16.457Z,2.35
2023-05-01T23:41:43.899Z,2.95
2023-05-01T23:44:11.259Z,2.30
2023-05-01T23:46:38.501Z,2.22
2023-05-01T23:49:05.512Z,2.65
2023-05-01T23:51:32.877Z,2.95
2023-05-01T23:54:00.422Z,2.58
2023-05-01T23:56:27.416Z,2.67
2023-05-01T23:58:54.376Z,3.75
